createdAt,value
2023-04-10T00:02:13.347Z,95.40
2023-04-10T00:04:42.947Z,95.60
2023-04-10T00:07:10.949Z,95.90
2023-04-10T00:09:38.878Z,96.20
2023-04-10T00:12:07.393Z,96.50
2023-04-10T00:14:35.365Z,96.80
2023-04-10T00:17:03.340Z,97.10
2023-04-10T00:19:31.297Z,97.50
2023-04-10T00:22:00.603Z,97.80
2023-04-10T00:24:28.657Z,98.00
2023-04-10T00:26:57.455Z,98.20
2023-04-10T00:29:25.677Z,98.40
2023-04-10T00:31:53.617Z,98.60
2023-04-10T00:34:21.678Z,98.80
2023-04-10T00:36:49.638Z,99.00
2023-04-10T00:39:18.960Z,99.30
2023-04-10T00:41:46.920Z,99.50
2023-04-10T00:44:14.844Z,99.70
2023-04-10T00:46:42.898Z,99.90
2023-04-10T00:49:11.102Z,99.90
2023-04-10T00:51:39.076Z,99.90
2023-04-10T00:54:07.206Z,99.90
2023-04-10T00:56:36.595Z,99.90
2023-04-10T00:59:07.071Z,99.90
2023-04-10T01:01:35.477Z,99.90
2023-04-10T01:04:04.108Z,99.90
2023-04-10T01:06:50.780Z,99.90
2023-04-10T01:09:26.111Z,99.90
2023-04-10T01:12:02.159Z,99.90
2023-04-10T01:14:43.589Z,99.90
2023-04-10T01:17:18.930Z,99.90
2023-04-10T01:20:02.150Z,99.90
2023-04-10T01:22:36.741Z,99.90
2023-04-10T01:25:40.777Z,99.90
2023-04-10T01:28:25.805Z,99.90
2023-04-10T01:31:00.567Z,99.90
2023-04-10T01:33:33.913Z,99.90
2023-04-10T01:36:06.332Z,99.90
2023-04-10T01:38:35.197Z,99.90
2023-04-10T01:41:04.408Z,99.90
2023-04-10T01:43:34.428Z,99.90
2023-04-10T01:46:04.965Z,99.90
2023-04-10T01:48:32.935Z,99.90
2023-04-10T01:51:04.825Z,99.90
2023-04-10T01:53:33.002Z,99.90
2023-04-10T01:56:02.908Z,99.90
2023-04-10T01:58:31.653Z,99.90
2023-04-10T02:00:59.588Z,99.90
2023-04-10T02:03:29.151Z,99.90
2023-04-10T02:06:07.929Z,99.90
2023-04-10T02:08:40.688Z,99.90
2023-04-10T02:11:16.362Z,99.90
2023-04-10T02:13:44.900Z,99.90
2023-04-10T02:16:17.355Z,99.90
2023-04-10T02:18:48.344Z,99.90
2023-04-10T02:21:17.361Z,99.90
2023-04-10T02:23:45.668Z,99.90
2023-04-10T02:26:13.607Z,99.90
2023-04-10T02:28:41.486Z,99.90
2023-04-10T02:31:09.448Z,99.90
2023-04-10T02:33:37.407Z,99.90
2023-04-10T02:36:07.758Z,99.90
2023-04-10T02:38:35.745Z,99.90
2023-04-10T02:41:03.654Z,99.90
2023-04-10T02:43:31.501Z,99.90
2023-04-10T02:45:59.934Z,99.90
2023-04-10T02:48:27.857Z,99.90
2023-04-10T02:50:58.196Z,99.90
2023-04-10T02:53:27.452Z,99.90
2023-04-10T02:55:55.570Z,99.90
2023-04-10T02:58:23.463Z,99.90
2023-04-10T03:00:52.606Z,99.90
2023-04-10T03:03:21.213Z,99.90
2023-04-10T03:05:49.508Z,99.90
2023-04-10T03:08:17.667Z,99.90
2023-04-10T03:10:48.598Z,99.90
2023-04-10T03:13:16.784Z,99.90
2023-04-10T03:15:44.720Z,99.90
2023-04-10T03:18:12.705Z,99.90
2023-04-10T03:20:41.341Z,99.90
2023-04-10T03:23:11.702Z,99.90
2023-04-10T03:25:39.676Z,99.90
2023-04-10T03:28:08.938Z,99.90
2023-04-10T03:30:37.200Z,99.90
2023-04-10T03:33:05.314Z,99.90
2023-04-10T03:35:33.224Z,99.90
2023-04-10T03:38:01.165Z,99.90
2023-04-10T03:40:29.081Z,99.90
2023-04-10T03:42:57.026Z,99.90
2023-04-10T03:45:26.256Z,99.90
2023-04-10T03:47:54.130Z,99.90
2023-04-10T03:50:22.249Z,99.90
2023-04-10T03:52:50.577Z,99.90
2023-04-10T03:55:18.955Z,99.90
2023-04-10T03:57:47.155Z,99.90
2023-04-10T04:00:16.212Z,99.90
2023-04-10T04:02:45.829Z,99.90
2023-04-10T04:05:14.093Z,99.90
2023-04-10T04:07:42.029Z,99.90
2023-04-10T04:10:10.226Z,99.90
2023-04-10T04:12:38.130Z,99.90
2023-04-10T04:15:06.836Z,99.90
2023-04-10T04:17:34.968Z,99.90
2023-04-10T04:20:04.376Z,99.90
2023-04-10T04:22:32.201Z,99.90
2023-04-10T04:25:00.051Z,99.90
2023-04-10T04:27:27.983Z,99.90
2023-04-10T04:29:55.848Z,99.90
2023-04-10T04:32:23.799Z,99.90
2023-04-10T04:34:51.685Z,99.90
2023-04-10T04:37:20.970Z,99.90
2023-04-10T04:39:48.979Z,99.90
2023-04-10T04:42:19.165Z,99.90
2023-04-10T04:44:47.122Z,99.90
2023-04-10T04:47:15.010Z,99.90
2023-04-10T04:49:42.946Z,99.90
2023-04-10T04:52:10.904Z,99.90
2023-04-10T04:54:40.428Z,99.90
2023-04-10T04:57:08.654Z,99.90
2023-04-10T04:59:38.135Z,99.90
2023-04-10T05:02:06.598Z,99.90
2023-04-10T05:04:35.014Z,99.90
2023-04-10T05:07:02.951Z,99.90
2023-04-10T05:09:30.899Z,99.90
2023-04-10T05:12:00.296Z,99.90
2023-04-10T05:14:28.292Z,99.90
2023-04-10T05:16:56.252Z,99.90
2023-04-10T05:19:24.220Z,99.90
2023-04-10T05:21:52.294Z,99.90
2023-04-10T05:24:20.236Z,99.90
2023-04-10T05:26:48.288Z,99.90
2023-04-10T05:29:17.586Z,99.90
2023-04-10T05:31:45.540Z,99.90
2023-04-10T05:34:13.398Z,99.90
2023-04-10T05:36:41.356Z,99.90
2023-04-10T05:39:09.278Z,99.90
2023-04-10T05:41:37.228Z,99.90
2023-04-10T05:44:05.079Z,99.90
2023-04-10T05:46:34.408Z,99.90
2023-04-10T05:49:02.885Z,99.90
2023-04-10T05:51:30.877Z,99.90
2023-04-10T05:53:58.768Z,99.90
2023-04-10T05:56:26.582Z,99.90
2023-04-10T05:58:54.714Z,99.90
2023-04-10T06:01:22.768Z,99.90
2023-04-10T06:03:52.124Z,99.90
2023-04-10T06:06:21.730Z,99.90
2023-04-10T06:08:49.905Z,99.90
2023-04-10T06:11:17.872Z,99.90
2023-04-10T06:13:45.753Z,99.90
2023-04-10T06:16:15.104Z,99.90
2023-04-10T06:18:43.510Z,99.90
2023-04-10T06:21:12.813Z,99.90
2023-04-10T06:23:40.859Z,99.90
2023-04-10T06:26:08.790Z,99.90
2023-04-10T06:28:36.973Z,99.90
2023-04-10T06:31:07.928Z,99.90
2023-04-10T06:33:36.666Z,99.90
2023-04-10T06:36:05.511Z,99.90
2023-04-10T06:38:37.746Z,99.90
2023-04-10T06:41:06.684Z,99.90
2023-04-10T06:43:35.299Z,99.90
2023-04-10T06:46:04.868Z,99.90
2023-04-10T06:48:32.843Z,99.90
2023-04-10T06:51:01.614Z,99.90
2023-04-10T06:53:29.646Z,99.90
2023-04-10T06:56:00.921Z,99.90
2023-04-10T06:58:31.421Z,99.90
2023-04-10T07:01:04.254Z,99.90
2023-04-10T07:03:32.701Z,99.90
2023-04-10T07:06:01.959Z,99.90
2023-04-10T07:08:29.971Z,99.90
2023-04-10T07:10:59.198Z,99.90
2023-04-10T07:13:27.105Z,99.90
2023-04-10T07:15:55.059Z,99.90
2023-04-10T07:18:22.959Z,99.90
2023-04-10T07:20:52.522Z,99.90
2023-04-10T07:23:20.671Z,99.90
2023-04-10T07:25:48.546Z,99.90
2023-04-10T07:28:17.826Z,99.90
2023-04-10T07:30:46.096Z,99.90
2023-04-10T07:33:14.291Z,99.90
2023-04-10T07:35:42.451Z,99.90
2023-04-10T07:38:10.403Z,99.90
2023-04-10T07:40:38.268Z,99.90
2023-04-10T07:43:06.138Z,99.90
2023-04-10T07:45:35.522Z,99.90
2023-04-10T07:48:03.564Z,99.90
2023-04-10T07:50:31.916Z,99.90
2023-04-10T07:53:03.499Z,99.90
2023-04-10T07:55:31.371Z,99.90
2023-04-10T07:57:59.221Z,99.90
2023-04-10T08:00:27.089Z,99.90
2023-04-10T08:02:56.755Z,99.90
2023-04-10T08:05:25.576Z,99.90
2023-04-10T08:07:53.482Z,99.90
2023-04-10T08:10:21.469Z,99.90
2023-04-10T08:12:49.321Z,99.90
2023-04-10T08:15:18.563Z,99.60
2023-04-10T08:17:46.479Z,99.50
2023-04-10T08:20:16.276Z,99.20
2023-04-10T08:22:44.171Z,98.70
2023-04-10T08:25:12.043Z,97.90
2023-04-10T08:27:39.922Z,97.60
2023-04-10T08:30:08.971Z,97.30
2023-04-10T08:32:37.232Z,97.00
2023-04-10T08:35:05.779Z,96.90
2023-04-10T08:37:35.044Z,96.10
2023-04-10T08:40:03.207Z,95.60
2023-04-10T08:42:33.870Z,94.70
2023-04-10T08:45:02.538Z,93.80
2023-04-10T08:47:35.219Z,93.00
2023-04-10T08:50:07.782Z,92.70
2023-04-10T08:52:39.106Z,92.40
2023-04-10T08:55:09.998Z,92.00
2023-04-10T08:57:42.840Z,91.50
2023-04-10T09:00:23.127Z,91.30
2023-04-10T09:02:55.270Z,91.00
2023-04-10T09:05:24.032Z,89.50
2023-04-10T09:07:53.577Z,87.40
2023-04-10T09:10:21.594Z,86.40
2023-04-10T09:12:50.291Z,84.60
2023-04-10T09:15:18.230Z,83.30
2023-04-10T09:18:07.054Z,82.60
2023-04-10T09:20:34.952Z,81.90
2023-04-10T09:23:21.391Z,81.10
2023-04-10T09:25:50.766Z,79.90
2023-04-10T09:28:19.161Z,79.10
2023-04-10T09:30:47.171Z,78.80
2023-04-10T09:33:24.226Z,77.90
2023-04-10T09:35:52.222Z,78.10
2023-04-10T09:38:22.699Z,76.20
2023-04-10T09:40:52.345Z,73.80
2023-04-10T09:43:24.379Z,72.20
2023-04-10T09:45:53.597Z,70.70
2023-04-10T09:48:22.862Z,68.90
2023-04-10T09:50:51.438Z,67.10
2023-04-10T09:53:22.015Z,64.00
2023-04-10T09:55:50.801Z,60.20
2023-04-10T09:58:19.034Z,58.50
2023-04-10T10:00:48.065Z,56.20
2023-04-10T10:03:17.361Z,53.50
2023-04-10T10:05:47.312Z,51.50
2023-04-10T10:08:16.771Z,50.20
2023-04-10T10:10:49.208Z,49.00
2023-04-10T10:13:22.493Z,47.20
2023-04-10T10:15:58.059Z,44.80
2023-04-10T10:18:33.586Z,42.90
2023-04-10T10:21:03.639Z,41.80
2023-04-10T10:23:34.195Z,39.60
2023-04-10T10:26:06.870Z,38.20
2023-04-10T10:28:36.721Z,37.80
2023-04-10T10:31:05.254Z,36.80
2023-04-10T10:33:36.521Z,35.30
2023-04-10T10:36:05.576Z,33.40
2023-04-10T10:38:34.462Z,30.10
2023-04-10T10:41:11.712Z,30.00
2023-04-10T10:43:49.552Z,29.10
2023-04-10T10:46:24.312Z,27.50
2023-04-10T10:48:58.866Z,27.00
2023-04-10T10:51:44.431Z,26.80
2023-04-10T10:54:31.983Z,27.10
2023-04-10T10:57:01.985Z,26.90
2023-04-10T10:59:57.991Z,27.40
2023-04-10T11:02:26.176Z,27.50
2023-04-10T11:04:54.282Z,27.50
2023-04-10T11:07:22.208Z,28.30
2023-04-10T11:09:57.076Z,28.30
2023-04-10T11:12:26.748Z,28.70
2023-04-10T11:14:59.668Z,28.70
2023-04-10T11:17:49.778Z,28.90
2023-04-10T11:20:17.913Z,28.70
2023-04-10T11:23:08.220Z,29.00
2023-04-10T11:25:52.832Z,29.60
2023-04-10T11:28:38.539Z,30.20
2023-04-10T11:31:20.893Z,30.80
2023-04-10T11:33:49.636Z,31.50
2023-04-10T11:36:18.621Z,31.90
2023-04-10T11:38:59.472Z,31.60
2023-04-10T11:41:32.016Z,31.50
2023-04-10T11:44:02.476Z,31.90
2023-04-10T11:46:31.265Z,32.30
2023-04-10T11:49:02.353Z,32.80
2023-04-10T11:51:31.651Z,33.20
2023-04-10T11:54:07.045Z,33.10
2023-04-10T11:56:35.404Z,33.60
2023-04-10T11:59:07.749Z,34.20
2023-04-10T12:01:35.835Z,33.30
2023-04-10T12:04:04.021Z,33.60
2023-04-10T12:06:32.998Z,33.70
2023-04-10T12:09:01.040Z,34.40
2023-04-10T12:11:29.672Z,33.60
2023-04-10T12:13:58.861Z,33.40
2023-04-10T12:16:29.031Z,32.90
2023-04-10T12:18:57.520Z,32.90
2023-04-10T12:21:26.244Z,32.90
2023-04-10T12:23:54.169Z,32.50
2023-04-10T12:26:22.373Z,31.70
2023-04-10T12:28:54.957Z,31.40
2023-04-10T12:31:32.032Z,31.10
2023-04-10T12:34:01.272Z,29.80
2023-04-10T12:36:30.865Z,29.20
2023-04-10T12:38:59.428Z,28.90
2023-04-10T12:41:29.628Z,29.00
2023-04-10T12:44:09.019Z,29.00
2023-04-10T12:46:38.856Z,29.00
2023-04-10T12:49:12.093Z,29.00
2023-04-10T12:51:47.115Z,29.20
2023-04-10T12:54:29.307Z,29.00
2023-04-10T12:56:57.726Z,28.60
2023-04-10T12:59:26.543Z,28.70
2023-04-10T13:01:56.023Z,28.20
2023-04-10T13:04:24.877Z,28.10
2023-04-10T13:06:53.619Z,28.00
2023-04-10T13:09:21.807Z,27.40
2023-04-10T13:11:51.694Z,28.00
2023-04-10T13:14:19.923Z,27.60
2023-04-10T13:16:47.828Z,27.60
2023-04-10T13:19:17.078Z,27.70
2023-04-10T13:21:45.032Z,27.90
2023-04-10T13:24:14.184Z,27.70
2023-04-10T13:26:44.001Z,27.90
2023-04-10T13:29:11.960Z,27.90
2023-04-10T13:31:39.988Z,27.40
2023-04-10T13:34:07.907Z,27.20
2023-04-10T13:36:37.250Z,25.60
2023-04-10T13:39:05.758Z,25.20
2023-04-10T13:41:33.853Z,25.70
2023-04-10T13:44:01.812Z,26.10
2023-04-10T13:46:29.695Z,26.00
2023-04-10T13:48:58.489Z,25.30
2023-04-10T13:51:26.636Z,25.10
2023-04-10T13:53:56.047Z,24.80
2023-04-10T13:56:23.976Z,25.30
2023-04-10T13:58:51.920Z,25.30
2023-04-10T14:01:19.858Z,24.90
2023-04-10T14:03:47.932Z,25.00
2023-04-10T14:06:16.229Z,25.30
2023-04-10T14:08:44.090Z,24.90
2023-04-10T14:11:13.410Z,24.90
2023-04-10T14:13:41.317Z,24.40
2023-04-10T14:16:09.753Z,24.20
2023-04-10T14:18:37.758Z,24.40
2023-04-10T14:21:05.976Z,24.30
2023-04-10T14:23:33.867Z,24.50
2023-04-10T14:26:01.860Z,24.90
2023-04-10T14:28:31.558Z,24.80
2023-04-10T14:30:59.518Z,24.90
2023-04-10T14:33:27.477Z,24.90
2023-04-10T14:35:55.720Z,25.30
2023-04-10T14:38:23.731Z,25.50
2023-04-10T14:40:51.916Z,25.70
2023-04-10T14:43:19.879Z,25.50
2023-04-10T14:45:49.317Z,25.60
2023-04-10T14:48:19.840Z,25.90
2023-04-10T14:50:48.285Z,26.00
2023-04-10T14:53:16.491Z,26.10
2023-04-10T14:55:44.467Z,26.30
2023-04-10T14:58:12.440Z,26.30
2023-04-10T15:00:40.592Z,25.80
2023-04-10T15:03:10.043Z,25.80
2023-04-10T15:05:38.105Z,25.70
2023-04-10T15:08:06.125Z,25.60
2023-04-10T15:10:34.058Z,25.80
2023-04-10T15:13:02.031Z,25.80
2023-04-10T15:15:29.903Z,25.90
2023-04-10T15:17:57.889Z,25.90
2023-04-10T15:20:27.233Z,26.40
2023-04-10T15:22:55.163Z,26.70
2023-04-10T15:25:23.071Z,27.00
2023-04-10T15:27:51.004Z,27.30
2023-04-10T15:30:19.223Z,27.60
2023-04-10T15:32:47.164Z,27.80
2023-04-10T15:35:15.221Z,28.20
2023-04-10T15:37:44.512Z,28.50
2023-04-10T15:40:12.835Z,28.80
2023-04-10T15:42:40.699Z,29.00
2023-04-10T15:45:08.883Z,29.30
2023-04-10T15:47:36.930Z,29.40
2023-04-10T15:50:05.666Z,29.70
2023-04-10T15:52:33.861Z,29.80
2023-04-10T15:55:03.156Z,30.20
2023-04-10T15:57:31.032Z,30.60
2023-04-10T16:00:00.641Z,30.90
2023-04-10T16:02:28.906Z,31.10
2023-04-10T16:04:57.052Z,31.40
2023-04-10T16:07:25.059Z,31.70
2023-04-10T16:09:55.028Z,32.10
2023-04-10T16:12:24.268Z,32.40
2023-04-10T16:14:52.159Z,32.80
2023-04-10T16:17:20.115Z,33.20
2023-04-10T16:19:48.110Z,33.60
2023-04-10T16:22:15.973Z,33.90
2023-04-10T16:24:43.845Z,34.30
2023-04-10T16:27:11.746Z,34.60
2023-04-10T16:29:41.030Z,34.90
2023-04-10T16:32:09.062Z,35.40
2023-04-10T16:34:37.028Z,35.70
2023-04-10T16:37:05.023Z,36.30
2023-04-10T16:39:32.958Z,36.80
2023-04-10T16:42:01.343Z,37.60
2023-04-10T16:44:29.318Z,38.10
2023-04-10T16:46:58.617Z,38.70
2023-04-10T16:49:26.737Z,39.30
2023-04-10T16:51:54.663Z,39.60
2023-04-10T16:54:22.601Z,39.90
2023-04-10T16:56:50.551Z,40.20
2023-04-10T16:59:18.572Z,40.40
2023-04-10T17:01:46.439Z,40.60
2023-04-10T17:04:18.033Z,40.90
2023-04-10T17:06:46.036Z,41.30
2023-04-10T17:09:14.090Z,41.50
2023-04-10T17:11:42.098Z,41.70
2023-04-10T17:14:10.550Z,41.80
2023-04-10T17:16:38.805Z,41.80
2023-04-10T17:19:06.893Z,41.70
2023-04-10T17:21:36.375Z,41.40
2023-04-10T17:24:04.512Z,41.40
2023-04-10T17:26:32.773Z,41.40
2023-04-10T17:29:01.190Z,41.50
2023-04-10T17:31:31.249Z,41.40
2023-04-10T17:33:59.300Z,41.30
2023-04-10T17:36:27.916Z,41.40
2023-04-10T17:38:57.638Z,41.40
2023-04-10T17:41:25.933Z,41.40
2023-04-10T17:43:54.099Z,41.40
2023-04-10T17:46:22.385Z,41.50
2023-04-10T17:48:50.418Z,41.60
2023-04-10T17:51:18.673Z,41.70
2023-04-10T17:53:47.264Z,41.70
2023-04-10T17:56:22.408Z,41.90
2023-04-10T17:58:50.477Z,42.00
2023-04-10T18:01:26.072Z,42.20
2023-04-10T18:03:54.186Z,42.60
2023-04-10T18:06:22.153Z,43.00
2023-04-10T18:08:50.617Z,43.30
2023-04-10T18:11:18.956Z,43.60
2023-04-10T18:13:48.980Z,43.80
2023-04-10T18:16:17.532Z,44.00
2023-04-10T18:18:45.658Z,44.20
2023-04-10T18:21:14.581Z,44.50
2023-04-10T18:23:44.401Z,44.80
2023-04-10T18:26:13.050Z,45.10
2023-04-10T18:28:42.001Z,45.40
2023-04-10T18:31:14.656Z,45.70
2023-04-10T18:33:43.431Z,46.10
2023-04-10T18:36:13.947Z,46.60
2023-04-10T18:38:42.932Z,46.90
2023-04-10T18:41:11.300Z,47.00
2023-04-10T18:43:39.592Z,47.40
2023-04-10T18:46:08.142Z,47.60
2023-04-10T18:48:42.145Z,48.00
2023-04-10T18:51:11.113Z,48.60
2023-04-10T18:53:39.844Z,49.60
2023-04-10T18:56:08.156Z,49.30
2023-04-10T18:58:36.622Z,49.70
2023-04-10T19:01:04.637Z,50.10
2023-04-10T19:03:32.673Z,50.60
2023-04-10T19:06:02.406Z,51.00
2023-04-10T19:08:30.410Z,52.10
2023-04-10T19:10:58.298Z,51.90
2023-04-10T19:13:26.318Z,52.60
2023-04-10T19:15:54.245Z,53.20
2023-04-10T19:18:22.196Z,53.90
2023-04-10T19:20:52.960Z,54.70
2023-04-10T19:23:23.053Z,55.40
2023-04-10T19:25:53.257Z,56.40
2023-04-10T19:28:21.418Z,57.20
2023-04-10T19:30:49.510Z,58.40
2023-04-10T19:33:17.984Z,59.90
2023-04-10T19:35:46.062Z,61.80
2023-04-10T19:38:14.024Z,63.80
2023-04-10T19:40:44.403Z,65.60
2023-04-10T19:43:12.435Z,68.50
2023-04-10T19:45:40.746Z,71.00
2023-04-10T19:48:09.687Z,73.10
2023-04-10T19:50:37.629Z,75.40
2023-04-10T19:53:05.726Z,77.40
2023-04-10T19:55:34.265Z,79.90
2023-04-10T19:58:03.600Z,81.90
2023-04-10T20:00:31.516Z,84.30
2023-04-10T20:02:59.663Z,86.60
2023-04-10T20:05:27.904Z,88.40
2023-04-10T20:07:55.903Z,90.00
2023-04-10T20:10:24.097Z,91.10
2023-04-10T20:12:52.052Z,91.70
2023-04-10T20:15:21.534Z,92.60
2023-04-10T20:17:49.567Z,93.60
2023-04-10T20:20:17.871Z,94.60
2023-04-10T20:22:45.737Z,95.50
2023-04-10T20:25:13.721Z,96.30
2023-04-10T20:27:41.598Z,97.30
2023-04-10T20:30:10.857Z,98.10
2023-04-10T20:32:40.204Z,99.40
2023-04-10T20:35:09.193Z,99.90
2023-04-10T20:37:37.091Z,99.90
2023-04-10T20:40:05.636Z,99.90
2023-04-10T20:42:33.592Z,99.90
2023-04-10T20:45:01.619Z,99.90
2023-04-10T20:47:30.069Z,99.90
2023-04-10T20:49:59.337Z,99.90
2023-04-10T20:52:27.308Z,99.90
2023-04-10T20:54:55.240Z,99.90
2023-04-10T20:57:23.800Z,99.90
2023-04-10T20:59:51.842Z,99.90
2023-04-10T21:02:19.868Z,99.90
2023-04-10T21:04:48.145Z,99.90
2023-04-10T21:07:17.505Z,99.90
2023-04-10T21:09:45.688Z,99.90
2023-04-10T21:12:13.600Z,99.90
2023-04-10T21:14:41.527Z,99.90
2023-04-10T21:17:09.464Z,99.90
2023-04-10T21:19:37.365Z,99.90
2023-04-10T21:22:05.458Z,99.90
2023-04-10T21:24:34.728Z,99.90
2023-04-10T21:27:02.620Z,99.90
2023-04-10T21:29:30.609Z,99.90
2023-04-10T21:31:58.541Z,99.90
2023-04-10T21:34:26.514Z,99.90
2023-04-10T21:36:54.981Z,99.90
2023-04-10T21:39:22.942Z,99.90
2023-04-10T21:41:52.160Z,99.90
2023-04-10T21:44:20.117Z,99.90
2023-04-10T21:46:48.177Z,99.90
2023-04-10T21:49:16.084Z,99.90
2023-04-10T21:51:43.969Z,99.90
2023-04-10T21:54:11.939Z,99.90
2023-04-10T21:56:41.332Z,99.90
2023-04-10T21:59:10.926Z,99.90
2023-04-10T22:01:41.429Z,99.90
2023-04-10T22:04:09.595Z,99.90
2023-04-10T22:06:37.511Z,99.90
2023-04-10T22:09:05.681Z,99.90
2023-04-10T22:11:34.235Z,99.90
2023-04-10T22:14:09.076Z,99.90
2023-04-10T22:16:44.711Z,99.90
2023-04-10T22:19:12.658Z,99.90
2023-04-10T22:21:40.609Z,99.90
2023-04-10T22:24:08.975Z,99.90
2023-04-10T22:26:36.847Z,99.90
2023-04-10T22:29:05.154Z,99.90
2023-04-10T22:31:33.207Z,99.90
2023-04-10T22:34:02.515Z,99.90
2023-04-10T22:36:33.403Z,99.90
2023-04-10T22:39:01.337Z,99.90
2023-04-10T22:41:29.375Z,99.90
2023-04-10T22:43:57.379Z,99.90
2023-04-10T22:46:25.472Z,99.90
2023-04-10T22:48:54.208Z,99.90
2023-04-10T22:51:23.685Z,99.90
2023-04-10T22:53:51.559Z,99.90
2023-04-10T22:56:23.127Z,99.90
2023-04-10T22:58:51.035Z,99.90
2023-04-10T23:01:18.988Z,99.90
2023-04-10T23:03:47.152Z,99.90
2023-04-10T23:06:15.068Z,99.90
2023-04-10T23:08:44.330Z,99.90
2023-04-10T23:11:12.233Z,99.90
2023-04-10T23:13:40.128Z,99.90
2023-04-10T23:16:08.982Z,99.90
2023-04-10T23:18:37.674Z,99.90
2023-04-10T23:21:07.334Z,99.90
2023-04-10T23:23:35.254Z,99.90
2023-04-10T23:26:04.532Z,99.90
2023-04-10T23:28:32.403Z,99.90
2023-04-10T23:31:00.324Z,99.90
2023-04-10T23:33:28.189Z,99.90
2023-04-10T23:35:56.111Z,99.90
2023-04-10T23:38:24.147Z,99.90
2023-04-10T23:40:52.090Z,99.90
2023-04-10T23:43:21.326Z,99.90
2023-04-10T23:45:49.303Z,99.90
2023-04-10T23:48:17.224Z,99.90
2023-04-10T23:50:45.214Z,99.90
2023-04-10T23:53:14.570Z,99.90
2023-04-10T23:55:43.193Z,99.90
2023-04-10T23:58:11.133Z,99.90
